sensor_id;sensor_type;location;lat;lon;timestamp;pressure;altitude;pressure_sealevel;temperature;humidity
13836;BME280;6988;52.614;13.500;2023-04-03T00:01:50;54933.06;;;-143.77;70.29
13836;BME280;6988;52.614;13.500;2023-04-03T00:06:46;54910.47;;;-143.77;71.11
13836;BME280;6988;52.614;13.500;2023-04-03T00:11:38;54931.00;;;-143.77;70.53
13836;BME280;6988;52.614;13.500;2023-04-03T00:16:30;54947.41;;;-143.77;70.93
13836;BME280;6988;52.614;13.500;2023-04-03T00:21:21;54922.78;;;-143.77;71.25
13836;BME280;6988;52.614;13.500;2023-04-03T00:26:14;54931.00;;;-143.77;71.11
13836;BME280;6988;52.614;13.500;2023-04-03T00:31:07;54967.94;;;-143.77;71.42
13836;BME280;6988;52.614;13.500;2023-04-03T00:36:05;54935.09;;;-143.77;71.57
13836;BME280;6988;52.614;13.500;2023-04-03T00:40:57;54953.56;;;-143.77;71.65
13836;BME280;6988;52.614;13.500;2023-04-03T00:45:51;54928.94;;;-143.77;71.69
13836;BME280;6988;52.614;13.500;2023-04-03T00:50:45;54978.19;;;-143.77;71.60
13836;BME280;6988;52.614;13.500;2023-04-03T00:55:39;54959.72;;;-143.77;71.63
13836;BME280;6988;52.614;13.500;2023-04-03T01:00:31;54959.72;;;-143.77;70.89
13836;BME280;6988;52.614;13.500;2023-04-03T01:05:24;54928.94;;;-143.77;71.51
13836;BME280;6988;52.614;13.500;2023-04-03T01:10:18;54939.22;;;-143.77;71.61
13836;BME280;6988;52.614;13.500;2023-04-03T01:15:15;54988.47;;;-143.77;71.33
13836;BME280;6988;52.614;13.500;2023-04-03T01:21:04;54939.22;;;-143.77;72.51
13836;BME280;6988;52.614;13.500;2023-04-03T01:25:58;54947.41;;;-143.77;71.74
13836;BME280;6988;52.614;13.500;2023-04-03T01:31:00;54959.72;;;-143.77;71.83
13836;BME280;6988;52.614;13.500;2023-04-03T01:35:57;54957.69;;;-143.77;72.22
13836;BME280;6988;52.614;13.500;2023-04-03T01:40:49;54953.56;;;-143.77;72.14
13836;BME280;6988;52.614;13.500;2023-04-03T01:45:41;54965.88;;;-143.77;72.27
13836;BME280;6988;52.614;13.500;2023-04-03T01:50:33;54990.50;;;-143.77;72.53
13836;BME280;6988;52.614;13.500;2023-04-03T01:55:27;54972.03;;;-143.77;73.14
13836;BME280;6988;52.614;13.500;2023-04-03T02:00:20;54963.84;;;-143.77;72.85
13836;BME280;6988;52.614;13.500;2023-04-03T02:05:12;54947.41;;;-143.77;73.09
13836;BME280;6988;52.614;13.500;2023-04-03T02:10:04;54982.31;;;-143.77;73.10
13836;BME280;6988;52.614;13.500;2023-04-03T02:14:58;54965.88;;;-143.77;73.39
13836;BME280;6988;52.614;13.500;2023-04-03T02:19:51;54961.78;;;-143.77;73.43
13836;BME280;6988;52.614;13.500;2023-04-03T02:24:43;54996.66;;;-143.77;72.76
13836;BME280;6988;52.614;13.500;2023-04-03T02:29:35;54986.41;;;-143.77;73.57
13836;BME280;6988;52.614;13.500;2023-04-03T02:34:28;54992.56;;;-143.77;73.33
13836;BME280;6988;52.614;13.500;2023-04-03T02:39:23;55013.09;;;-143.77;73.65
13836;BME280;6988;52.614;13.500;2023-04-03T02:44:16;55017.19;;;-143.77;73.76
13836;BME280;6988;52.614;13.500;2023-04-03T02:49:08;54976.16;;;-143.77;73.33
13836;BME280;6988;52.614;13.500;2023-04-03T02:54:02;54945.38;;;-143.77;74.01
13836;BME280;6988;52.614;13.500;2023-04-03T02:58:58;54963.84;;;-143.77;73.03
13836;BME280;6988;52.614;13.500;2023-04-03T03:03:50;54970.00;;;-143.77;73.37
13836;BME280;6988;52.614;13.500;2023-04-03T03:08:43;54955.63;;;-143.77;73.73
13836;BME280;6988;52.614;13.500;2023-04-03T03:13:36;55002.81;;;-143.77;74.06
13836;BME280;6988;52.614;13.500;2023-04-03T03:18:29;55017.19;;;-143.77;74.34
13836;BME280;6988;52.614;13.500;2023-04-03T03:23:22;54982.31;;;-143.77;74.09
13836;BME280;6988;52.614;13.500;2023-04-03T03:28:15;54992.56;;;-143.77;73.86
13836;BME280;6988;52.614;13.500;2023-04-03T03:33:08;54976.16;;;-143.77;73.65
13836;BME280;6988;52.614;13.500;2023-04-03T03:38:00;54963.84;;;-143.77;73.85
13836;BME280;6988;52.614;13.500;2023-04-03T03:42:52;54951.53;;;-143.77;74.21
13836;BME280;6988;52.614;13.500;2023-04-03T03:47:44;55008.97;;;-143.77;74.42
13836;BME280;6988;52.614;13.500;2023-04-03T03:52:37;55035.66;;;-143.77;74.52
13836;BME280;6988;52.614;13.500;2023-04-03T03:57:29;54982.31;;;-143.77;74.51
13836;BME280;6988;52.614;13.500;2023-04-03T04:02:22;54955.63;;;-143.77;74.51
13836;BME280;6988;52.614;13.500;2023-04-03T04:07:14;54963.84;;;-143.77;75.04
13836;BME280;6988;52.614;13.500;2023-04-03T04:12:08;54998.72;;;-143.77;75.36
13836;BME280;6988;52.614;13.500;2023-04-03T04:17:01;54976.16;;;-143.77;75.04
13836;BME280;6988;52.614;13.500;2023-04-03T04:21:53;54996.66;;;-143.77;75.03
13836;BME280;6988;52.614;13.500;2023-04-03T04:26:45;54959.72;;;-143.77;75.38
13836;BME280;6988;52.614;13.500;2023-04-03T04:31:40;54967.94;;;-143.77;74.96
13836;BME280;6988;52.614;13.500;2023-04-03T04:36:32;54972.03;;;-143.77;75.59
13836;BME280;6988;52.614;13.500;2023-04-03T04:41:25;55017.19;;;-143.77;75.77
13836;BME280;6988;52.614;13.500;2023-04-03T04:46:18;54967.94;;;-143.77;75.86
13836;BME280;6988;52.614;13.500;2023-04-03T04:51:16;55004.88;;;-143.77;75.90
13836;BME280;6988;52.614;13.500;2023-04-03T04:56:09;54992.56;;;-143.77;75.83
13836;BME280;6988;52.614;13.500;2023-04-03T05:01:05;55045.91;;;-143.77;76.02
13836;BME280;6988;52.614;13.500;2023-04-03T05:06:00;54982.31;;;-143.77;75.88
13836;BME280;6988;52.614;13.500;2023-04-03T05:10:56;54978.19;;;-143.77;75.73
13836;BME280;6988;52.614;13.500;2023-04-03T05:15:50;54996.66;;;-143.77;75.40
13836;BME280;6988;52.614;13.500;2023-04-03T05:20:42;55045.91;;;-143.77;75.37
13836;BME280;6988;52.614;13.500;2023-04-03T05:25:37;54963.84;;;-143.77;75.46
13836;BME280;6988;52.614;13.500;2023-04-03T05:30:31;54951.53;;;-143.77;75.51
13836;BME280;6988;52.614;13.500;2023-04-03T05:35:24;54982.31;;;-143.77;75.22
13836;BME280;6988;52.614;13.500;2023-04-03T05:40:20;54976.16;;;-143.77;74.80
13836;BME280;6988;52.614;13.500;2023-04-03T05:45:15;54947.41;;;-143.77;74.92
13836;BME280;6988;52.614;13.500;2023-04-03T05:50:10;54976.16;;;-143.77;74.75
13836;BME280;6988;52.614;13.500;2023-04-03T05:55:02;54931.00;;;-143.77;75.39
13836;BME280;6988;52.614;13.500;2023-04-03T05:59:58;54941.25;;;-143.77;74.51
13836;BME280;6988;52.614;13.500;2023-04-03T06:04:50;54955.63;;;-143.77;73.81
13836;BME280;6988;52.614;13.500;2023-04-03T06:09:45;54931.00;;;-143.77;73.76
13836;BME280;6988;52.614;13.500;2023-04-03T06:14:37;54918.69;;;-143.77;72.44
13836;BME280;6988;52.614;13.500;2023-04-03T06:19:28;54898.16;;;-143.77;72.61
13836;BME280;6988;52.614;13.500;2023-04-03T06:24:22;54881.75;;;-143.77;71.20
13836;BME280;6988;52.614;13.500;2023-04-03T06:29:15;54885.84;;;-143.77;70.04
13836;BME280;6988;52.614;13.500;2023-04-03T06:34:07;54799.66;;;-143.77;68.99
13836;BME280;6988;52.614;13.500;2023-04-03T06:38:59;54787.34;;;-143.77;66.69
13836;BME280;6988;52.614;13.500;2023-04-03T06:43:52;54814.03;;;-143.77;65.79
13836;BME280;6988;52.614;13.500;2023-04-03T06:48:45;54756.56;;;-143.77;63.42
13836;BME280;6988;52.614;13.500;2023-04-03T06:53:37;54781.19;;;-143.77;61.17
13836;BME280;6988;52.614;13.500;2023-04-03T06:58:28;54746.31;;;-143.77;61.42
13836;BME280;6988;52.614;13.500;2023-04-03T07:03:20;54717.59;;;-143.77;61.01
13836;BME280;6988;52.614;13.500;2023-04-03T07:08:13;54746.31;;;-143.77;59.18
13836;BME280;6988;52.614;13.500;2023-04-03T07:13:05;54766.84;;;-143.77;58.32
13836;BME280;6988;52.614;13.500;2023-04-03T07:17:57;54791.47;;;-143.77;58.93
13836;BME280;6988;52.614;13.500;2023-04-03T07:22:49;54680.66;;;-143.77;58.58
13836;BME280;6988;52.614;13.500;2023-04-03T07:27:42;54752.47;;;-143.77;58.34
13836;BME280;6988;52.614;13.500;2023-04-03T07:32:34;54744.25;;;-143.77;58.04
13836;BME280;6988;52.614;13.500;2023-04-03T07:37:27;54756.56;;;-143.77;54.87
13836;BME280;6988;52.614;13.500;2023-04-03T07:42:18;54766.84;;;-143.77;52.42
13836;BME280;6988;52.614;13.500;2023-04-03T07:47:12;54707.31;;;-143.77;55.88
13836;BME280;6988;52.614;13.500;2023-04-03T07:52:07;54764.78;;;-143.77;56.29
13836;BME280;6988;52.614;13.500;2023-04-03T07:56:59;54740.16;;;-143.77;58.02
13836;BME280;6988;52.614;13.500;2023-04-03T08:01:51;54602.66;;;-143.77;54.08
13836;BME280;6988;52.614;13.500;2023-04-03T08:06:48;54752.47;;;-143.77;53.68
13836;BME280;6988;52.614;13.500;2023-04-03T08:11:40;54754.53;;;-143.77;52.76
13836;BME280;6988;52.614;13.500;2023-04-03T08:16:32;54770.94;;;-143.77;54.28
13836;BME280;6988;52.614;13.500;2023-04-03T08:21:24;54744.25;;;-143.77;54.86
13836;BME280;6988;52.614;13.500;2023-04-03T08:26:21;54746.31;;;-143.77;55.03
13836;BME280;6988;52.614;13.500;2023-04-03T08:31:16;54752.47;;;-143.77;52.64
13836;BME280;6988;52.614;13.500;2023-04-03T08:36:19;54688.84;;;-143.77;53.57
13836;BME280;6988;52.614;13.500;2023-04-03T08:41:16;54758.63;;;-143.77;52.78
13836;BME280;6988;52.614;13.500;2023-04-03T08:46:19;54748.38;;;-143.77;53.76
13836;BME280;6988;52.614;13.500;2023-04-03T08:51:17;54766.84;;;-143.77;51.43
13836;BME280;6988;52.614;13.500;2023-04-03T08:56:13;54762.72;;;-143.77;50.45
13836;BME280;6988;52.614;13.500;2023-04-03T09:01:19;54773.00;;;-143.77;51.48
13836;BME280;6988;52.614;13.500;2023-04-03T09:06:16;54682.69;;;-143.77;51.59
13836;BME280;6988;52.614;13.500;2023-04-03T09:11:18;54717.59;;;-143.77;50.73
13836;BME280;6988;52.614;13.500;2023-04-03T09:16:31;54746.31;;;-143.77;48.03
13836;BME280;6988;52.614;13.500;2023-04-03T09:21:32;54738.09;;;-143.77;47.16
13836;BME280;6988;52.614;13.500;2023-04-03T09:26:31;54729.91;;;-143.77;50.41
13836;BME280;6988;52.614;13.500;2023-04-03T09:31:31;54731.94;;;-143.77;50.01
13836;BME280;6988;52.614;13.500;2023-04-03T09:36:42;54779.16;;;-143.77;50.34
13836;BME280;6988;52.614;13.500;2023-04-03T09:41:34;54709.38;;;-143.77;48.60
13836;BME280;6988;52.614;13.500;2023-04-03T09:46:32;54680.66;;;-143.77;46.48
13836;BME280;6988;52.614;13.500;2023-04-03T09:51:26;54742.22;;;-143.77;48.60
13836;BME280;6988;52.614;13.500;2023-04-03T09:56:23;54717.59;;;-143.77;48.40
13836;BME280;6988;52.614;13.500;2023-04-03T10:01:27;54658.06;;;-143.77;46.97
13836;BME280;6988;52.614;13.500;2023-04-03T10:06:24;54682.69;;;-143.77;46.20
13836;BME280;6988;52.614;13.500;2023-04-03T10:11:17;54672.44;;;-143.77;45.34
13836;BME280;6988;52.614;13.500;2023-04-03T10:16:17;54647.81;;;-143.77;45.21
13836;BME280;6988;52.614;13.500;2023-04-03T10:21:15;54660.13;;;-143.77;45.05
13836;BME280;6988;52.614;13.500;2023-04-03T10:26:27;54651.91;;;-143.77;46.05
13836;BME280;6988;52.614;13.500;2023-04-03T10:31:28;54633.44;;;-143.77;43.84
13836;BME280;6988;52.614;13.500;2023-04-03T10:36:35;54672.44;;;-143.77;45.22
13836;BME280;6988;52.614;13.500;2023-04-03T10:41:46;54676.53;;;-143.77;44.75
13836;BME280;6988;52.614;13.500;2023-04-03T10:46:45;54688.84;;;-143.77;44.86
13836;BME280;6988;52.614;13.500;2023-04-03T10:51:45;54692.97;;;-143.77;48.85
13836;BME280;6988;52.614;13.500;2023-04-03T10:56:44;54697.06;;;-143.77;47.64
13836;BME280;6988;52.614;13.500;2023-04-03T11:01:42;54705.28;;;-143.77;48.35
13836;BME280;6988;52.614;13.500;2023-04-03T11:06:41;54690.91;;;-143.77;48.65
13836;BME280;6988;52.614;13.500;2023-04-03T11:11:40;54686.81;;;-143.77;48.38
13836;BME280;6988;52.614;13.500;2023-04-03T11:16:40;54660.13;;;-143.77;48.51
13836;BME280;6988;52.614;13.500;2023-04-03T11:21:38;54672.44;;;-143.77;46.92
13836;BME280;6988;52.614;13.500;2023-04-03T11:26:38;54660.13;;;-143.77;46.93
13836;BME280;6988;52.614;13.500;2023-04-03T11:31:49;54627.28;;;-143.77;46.31
13836;BME280;6988;52.614;13.500;2023-04-03T11:36:54;54627.28;;;-143.77;46.34
13836;BME280;6988;52.614;13.500;2023-04-03T11:41:47;54649.88;;;-143.77;45.25
13836;BME280;6988;52.614;13.500;2023-04-03T11:46:52;54619.09;;;-143.77;46.27
13836;BME280;6988;52.614;13.500;2023-04-03T11:51:45;54662.19;;;-143.77;46.25
13836;BME280;6988;52.614;13.500;2023-04-03T11:56:37;54651.91;;;-143.77;48.23
13836;BME280;6988;52.614;13.500;2023-04-03T12:01:47;54656.03;;;-143.77;48.92
13836;BME280;6988;52.614;13.500;2023-04-03T12:06:53;54656.03;;;-143.77;46.90
13836;BME280;6988;52.614;13.500;2023-04-03T12:11:51;54639.59;;;-143.77;47.65
13836;BME280;6988;52.614;13.500;2023-04-03T12:16:46;54590.34;;;-143.77;47.43
13836;BME280;6988;52.614;13.500;2023-04-03T12:22:10;54617.03;;;-143.77;45.57
13836;BME280;6988;52.614;13.500;2023-04-03T12:27:17;54623.19;;;-143.77;44.25
13836;BME280;6988;52.614;13.500;2023-04-03T12:32:24;54596.50;;;-143.77;45.33
13836;BME280;6988;52.614;13.500;2023-04-03T12:37:39;54639.59;;;-143.77;43.69
13836;BME280;6988;52.614;13.500;2023-04-03T12:42:53;54664.22;;;-143.77;45.14
13836;BME280;6988;52.614;13.500;2023-04-03T12:47:51;54725.78;;;-143.77;47.45
13836;BME280;6988;52.614;13.500;2023-04-03T12:52:52;54680.66;;;-143.77;46.77
13836;BME280;6988;52.614;13.500;2023-04-03T12:57:46;54629.34;;;-143.77;46.67
13836;BME280;6988;52.614;13.500;2023-04-03T13:02:38;54647.81;;;-143.77;48.31
13836;BME280;6988;52.614;13.500;2023-04-03T13:07:32;54600.63;;;-143.77;45.46
13836;BME280;6988;52.614;13.500;2023-04-03T13:12:29;54658.06;;;-143.77;45.70
13836;BME280;6988;52.614;13.500;2023-04-03T13:17:22;54643.72;;;-143.77;46.73
13836;BME280;6988;52.614;13.500;2023-04-03T13:22:26;54627.28;;;-143.77;45.66
13836;BME280;6988;52.614;13.500;2023-04-03T13:27:19;54666.28;;;-143.77;46.67
13836;BME280;6988;52.614;13.500;2023-04-03T13:32:20;54656.03;;;-143.77;47.17
13836;BME280;6988;52.614;13.500;2023-04-03T13:37:21;54660.13;;;-143.77;49.45
13836;BME280;6988;52.614;13.500;2023-04-03T13:42:23;54697.06;;;-143.77;49.02
13836;BME280;6988;52.614;13.500;2023-04-03T13:47:19;54672.44;;;-143.77;49.59
13836;BME280;6988;52.614;13.500;2023-04-03T13:52:28;54692.97;;;-143.77;47.67
13836;BME280;6988;52.614;13.500;2023-04-03T13:57:20;54682.69;;;-143.77;48.90
13836;BME280;6988;52.614;13.500;2023-04-03T14:02:32;54658.06;;;-143.77;48.35
13836;BME280;6988;52.614;13.500;2023-04-03T14:07:26;54653.97;;;-143.77;50.33
13836;BME280;6988;52.614;13.500;2023-04-03T14:12:25;54637.56;;;-143.77;48.80
13836;BME280;6988;52.614;13.500;2023-04-03T14:17:22;54545.22;;;-143.77;49.56
13836;BME280;6988;52.614;13.500;2023-04-03T14:22:19;54621.13;;;-143.77;46.81
13836;BME280;6988;52.614;13.500;2023-04-03T14:27:18;54619.09;;;-143.77;46.82
13836;BME280;6988;52.614;13.500;2023-04-03T14:32:12;54656.03;;;-143.77;45.63
13836;BME280;6988;52.614;13.500;2023-04-03T14:37:11;54676.53;;;-143.77;48.14
13836;BME280;6988;52.614;13.500;2023-04-03T14:42:03;54697.06;;;-143.77;48.51
13836;BME280;6988;52.614;13.500;2023-04-03T14:46:55;54701.16;;;-143.77;50.09
13836;BME280;6988;52.614;13.500;2023-04-03T14:51:47;54738.09;;;-143.77;50.61
13836;BME280;6988;52.614;13.500;2023-04-03T14:56:41;54692.97;;;-143.77;49.86
13836;BME280;6988;52.614;13.500;2023-04-03T15:01:34;54707.31;;;-143.77;51.27
13836;BME280;6988;52.614;13.500;2023-04-03T15:06:26;54684.75;;;-143.77;52.01
13836;BME280;6988;52.614;13.500;2023-04-03T15:11:18;54692.97;;;-143.77;52.69
13836;BME280;6988;52.614;13.500;2023-04-03T15:16:17;54678.59;;;-143.77;52.67
13836;BME280;6988;52.614;13.500;2023-04-03T15:21:10;54697.06;;;-143.77;52.94
13836;BME280;6988;52.614;13.500;2023-04-03T15:26:02;54717.59;;;-143.77;53.29
13836;BME280;6988;52.614;13.500;2023-04-03T15:30:54;54736.06;;;-143.77;54.13
13836;BME280;6988;52.614;13.500;2023-04-03T15:35:48;54729.91;;;-143.77;52.76
13836;BME280;6988;52.614;13.500;2023-04-03T15:40:40;54723.75;;;-143.77;52.82
13836;BME280;6988;52.614;13.500;2023-04-03T15:45:36;54697.06;;;-143.77;54.18
13836;BME280;6988;52.614;13.500;2023-04-03T15:50:28;54711.44;;;-143.77;54.54
13836;BME280;6988;52.614;13.500;2023-04-03T15:55:22;54727.84;;;-143.77;53.32
13836;BME280;6988;52.614;13.500;2023-04-03T16:00:14;54697.06;;;-143.77;52.99
13836;BME280;6988;52.614;13.500;2023-04-03T16:05:08;54688.84;;;-143.77;53.27
13836;BME280;6988;52.614;13.500;2023-04-03T16:10:01;54662.19;;;-143.77;52.06
13836;BME280;6988;52.614;13.500;2023-04-03T16:14:54;54690.91;;;-143.77;52.70
13836;BME280;6988;52.614;13.500;2023-04-03T16:19:46;54699.13;;;-143.77;52.22
13836;BME280;6988;52.614;13.500;2023-04-03T16:24:37;54727.84;;;-143.77;52.94
13836;BME280;6988;52.614;13.500;2023-04-03T16:29:29;54787.34;;;-143.77;53.53
13836;BME280;6988;52.614;13.500;2023-04-03T16:34:22;54721.69;;;-143.77;54.68
13836;BME280;6988;52.614;13.500;2023-04-03T16:39:16;54709.38;;;-143.77;54.87
13836;BME280;6988;52.614;13.500;2023-04-03T16:44:07;54729.91;;;-143.77;55.04
13836;BME280;6988;52.614;13.500;2023-04-03T16:48:59;54746.31;;;-143.77;55.86
13836;BME280;6988;52.614;13.500;2023-04-03T16:53:52;54738.09;;;-143.77;56.24
13836;BME280;6988;52.614;13.500;2023-04-03T16:58:44;54758.63;;;-143.77;56.36
13836;BME280;6988;52.614;13.500;2023-04-03T17:03:36;54779.16;;;-143.77;56.86
13836;BME280;6988;52.614;13.500;2023-04-03T17:08:27;54746.31;;;-143.77;57.96
13836;BME280;6988;52.614;13.500;2023-04-03T17:13:20;54754.53;;;-143.77;58.12
13836;BME280;6988;52.614;13.500;2023-04-03T17:18:12;54736.06;;;-143.77;57.50
13836;BME280;6988;52.614;13.500;2023-04-03T17:23:05;54754.53;;;-143.77;58.30
13836;BME280;6988;52.614;13.500;2023-04-03T17:27:57;54766.84;;;-143.77;58.07
13836;BME280;6988;52.614;13.500;2023-04-03T17:32:50;54744.25;;;-143.77;59.04
13836;BME280;6988;52.614;13.500;2023-04-03T17:37:42;54775.03;;;-143.77;59.36
13836;BME280;6988;52.614;13.500;2023-04-03T17:42:34;54773.00;;;-143.77;58.24
13836;BME280;6988;52.614;13.500;2023-04-03T17:47:26;54775.03;;;-143.77;58.68
13836;BME280;6988;52.614;13.500;2023-04-03T17:52:19;54787.34;;;-143.77;58.58
13836;BME280;6988;52.614;13.500;2023-04-03T17:57:13;54754.53;;;-143.77;59.25
13836;BME280;6988;52.614;13.500;2023-04-03T18:02:05;54779.16;;;-143.77;60.42
13836;BME280;6988;52.614;13.500;2023-04-03T18:06:57;54793.50;;;-143.77;59.78
13836;BME280;6988;52.614;13.500;2023-04-03T18:11:51;54840.72;;;-143.77;60.50
13836;BME280;6988;52.614;13.500;2023-04-03T18:16:43;54779.16;;;-143.77;60.67
13836;BME280;6988;52.614;13.500;2023-04-03T18:21:35;54820.19;;;-143.77;61.08
13836;BME280;6988;52.614;13.500;2023-04-03T18:26:28;54770.94;;;-143.77;61.01
13836;BME280;6988;52.614;13.500;2023-04-03T18:31:24;54797.63;;;-143.77;61.90
13836;BME280;6988;52.614;13.500;2023-04-03T18:36:16;54803.78;;;-143.77;61.79
13836;BME280;6988;52.614;13.500;2023-04-03T18:41:08;54807.88;;;-143.77;61.83
13836;BME280;6988;52.614;13.500;2023-04-03T18:46:00;54795.56;;;-143.77;62.24
13836;BME280;6988;52.614;13.500;2023-04-03T18:50:55;54799.66;;;-143.77;62.44
13836;BME280;6988;52.614;13.500;2023-04-03T18:55:46;54828.41;;;-143.77;63.08
13836;BME280;6988;52.614;13.500;2023-04-03T19:00:40;54787.34;;;-143.77;63.19
13836;BME280;6988;52.614;13.500;2023-04-03T19:05:32;54803.78;;;-143.77;63.69
13836;BME280;6988;52.614;13.500;2023-04-03T19:10:25;54824.28;;;-143.77;64.09
13836;BME280;6988;52.614;13.500;2023-04-03T19:15:19;54861.22;;;-143.77;64.35
13836;BME280;6988;52.614;13.500;2023-04-03T19:20:13;54809.94;;;-143.77;64.80
13836;BME280;6988;52.614;13.500;2023-04-03T19:25:07;54814.03;;;-143.77;64.84
13836;BME280;6988;52.614;13.500;2023-04-03T19:30:01;54820.19;;;-143.77;65.03
13836;BME280;6988;52.614;13.500;2023-04-03T19:34:53;54801.72;;;-143.77;65.36
13836;BME280;6988;52.614;13.500;2023-04-03T19:39:45;54793.50;;;-143.77;65.70
13836;BME280;6988;52.614;13.500;2023-04-03T19:44:37;54889.97;;;-143.77;65.55
13836;BME280;6988;52.614;13.500;2023-04-03T19:49:30;54889.97;;;-143.77;65.98
13836;BME280;6988;52.614;13.500;2023-04-03T19:54:23;54803.78;;;-143.77;66.14
13836;BME280;6988;52.614;13.500;2023-04-03T19:59:15;54818.13;;;-143.77;66.48
13836;BME280;6988;52.614;13.500;2023-04-03T20:04:08;54828.41;;;-143.77;66.91
13836;BME280;6988;52.614;13.500;2023-04-03T20:09:01;54873.53;;;-143.77;66.85
13836;BME280;6988;52.614;13.500;2023-04-03T20:13:54;54844.81;;;-143.77;66.94
13836;BME280;6988;52.614;13.500;2023-04-03T20:18:47;54824.28;;;-143.77;66.95
13836;BME280;6988;52.614;13.500;2023-04-03T20:23:39;54811.97;;;-143.77;67.34
13836;BME280;6988;52.614;13.500;2023-04-03T20:28:33;54816.09;;;-143.77;67.65
13836;BME280;6988;52.614;13.500;2023-04-03T20:33:25;54836.59;;;-143.77;67.40
13836;BME280;6988;52.614;13.500;2023-04-03T20:38:17;54853.03;;;-143.77;67.79
13836;BME280;6988;52.614;13.500;2023-04-03T20:43:10;54855.06;;;-143.77;67.98
13836;BME280;6988;52.614;13.500;2023-04-03T20:48:03;54826.34;;;-143.77;68.25
13836;BME280;6988;52.614;13.500;2023-04-03T20:52:55;54816.09;;;-143.77;68.46
13836;BME280;6988;52.614;13.500;2023-04-03T20:57:48;54822.25;;;-143.77;68.27
13836;BME280;6988;52.614;13.500;2023-04-03T21:02:40;54859.19;;;-143.77;68.61
13836;BME280;6988;52.614;13.500;2023-04-03T21:19:13;54881.75;;;-143.77;68.89
13836;BME280;6988;52.614;13.500;2023-04-03T21:24:06;54881.75;;;-143.77;68.88
13836;BME280;6988;52.614;13.500;2023-04-03T21:29:00;54885.84;;;-143.77;69.41
13836;BME280;6988;52.614;13.500;2023-04-03T21:33:51;54865.34;;;-143.77;68.87
13836;BME280;6988;52.614;13.500;2023-04-03T21:38:44;54867.38;;;-143.77;69.18
13836;BME280;6988;52.614;13.500;2023-04-03T21:43:37;54871.50;;;-143.77;68.89
13836;BME280;6988;52.614;13.500;2023-04-03T22:04:01;54898.16;;;-143.77;69.85
13836;BME280;6988;52.614;13.500;2023-04-03T22:08:53;54877.66;;;-143.77;70.12
13836;BME280;6988;52.614;13.500;2023-04-03T22:13:51;54881.75;;;-143.77;70.79
13836;BME280;6988;52.614;13.500;2023-04-03T22:18:43;54885.84;;;-143.77;70.61
13836;BME280;6988;52.614;13.500;2023-04-03T22:23:36;54937.16;;;-143.77;71.26
13836;BME280;6988;52.614;13.500;2023-04-03T22:28:31;54896.13;;;-143.77;71.07
13836;BME280;6988;52.614;13.500;2023-04-03T22:33:23;54922.78;;;-143.77;71.21
13836;BME280;6988;52.614;13.500;2023-04-03T22:38:16;54881.75;;;-143.77;70.85
13836;BME280;6988;52.614;13.500;2023-04-03T22:43:10;54877.66;;;-143.77;71.00
13836;BME280;6988;52.614;13.500;2023-04-03T22:48:02;54931.00;;;-143.77;71.53
13836;BME280;6988;52.614;13.500;2023-04-03T22:52:55;54906.38;;;-143.77;71.24
13836;BME280;6988;52.614;13.500;2023-04-03T22:57:47;54924.84;;;-143.77;71.52
13836;BME280;6988;52.614;13.500;2023-04-03T23:02:41;54935.09;;;-143.77;71.43
13836;BME280;6988;52.614;13.500;2023-04-03T23:07:33;54943.31;;;-143.77;71.54
13836;BME280;6988;52.614;13.500;2023-04-03T23:12:25;54947.41;;;-143.77;71.37
13836;BME280;6988;52.614;13.500;2023-04-03T23:17:17;54933.06;;;-143.77;71.58
13836;BME280;6988;52.614;13.500;2023-04-03T23:22:10;54947.41;;;-143.77;71.29
13836;BME280;6988;52.614;13.500;2023-04-03T23:27:05;54931.00;;;-143.77;71.11
13836;BME280;6988;52.614;13.500;2023-04-03T23:32:00;54924.84;;;-143.77;71.68
13836;BME280;6988;52.614;13.500;2023-04-03T23:36:52;54926.91;;;-143.77;71.60
13836;BME280;6988;52.614;13.500;2023-04-03T23:41:45;54931.00;;;-143.77;71.42
13836;BME280;6988;52.614;13.500;2023-04-03T23:46:37;54912.53;;;-143.77;71.73
13836;BME280;6988;52.614;13.500;2023-04-03T23:51:30;54967.94;;;-143.77;72.08
13836;BME280;6988;52.614;13.500;2023-04-03T23:56:22;54918.69;;;-143.77;71.79
